createdAt,value
2018-07-23T00:01:05.498Z,77.70
2018-07-23T00:05:09.081Z,78.10
2018-07-23T00:09:24.758Z,76.90
2018-07-23T00:13:28.766Z,78.30
2018-07-23T00:17:32.910Z,76.40
2018-07-23T00:21:36.714Z,77.20
2018-07-23T00:25:40.873Z,78.10
2018-07-23T00:29:45.638Z,78.50
2018-07-23T00:33:52.265Z,78.50
2018-07-23T00:37:55.970Z,78.60
2018-07-23T00:41:59.506Z,78.50
2018-07-23T00:46:04.232Z,78.50
2018-07-23T00:50:08.039Z,78.60
2018-07-23T00:54:12.680Z,79.20
2018-07-23T00:58:16.646Z,79.20
2018-07-23T01:02:23.534Z,79.20
2018-07-23T01:06:27.074Z,78.50
2018-07-23T01:10:30.815Z,78.30
2018-07-23T01:14:34.465Z,79.20
2018-07-23T01:18:38.743Z,78.80
2018-07-23T01:22:42.959Z,78.70
2018-07-23T01:26:46.705Z,77.90
2018-07-23T01:30:50.846Z,78.20
2018-07-23T01:35:00.776Z,77.70
2018-07-23T01:39:07.832Z,79.10
2018-07-23T01:43:11.457Z,79.60
2018-07-23T01:47:15.070Z,79.10
2018-07-23T01:51:18.992Z,77.60
2018-07-23T01:55:23.525Z,78.10
2018-07-23T01:59:27.572Z,79.00
2018-07-23T02:03:31.529Z,80.40
2018-07-23T02:07:35.281Z,79.10
2018-07-23T02:11:39.110Z,79.90
2018-07-23T02:15:42.793Z,81.10
2018-07-23T02:19:46.401Z,79.00
2018-07-23T02:23:49.975Z,77.90
2018-07-23T02:27:53.535Z,76.70
2018-07-23T02:31:57.066Z,77.40
2018-07-23T02:36:00.569Z,78.80
2018-07-23T02:40:05.467Z,77.30
2018-07-23T02:44:09.943Z,78.50
2018-07-23T02:48:13.618Z,80.20
2018-07-23T02:52:17.145Z,82.00
2018-07-23T02:56:21.045Z,81.50
2018-07-23T03:00:24.635Z,79.60
2018-07-23T03:04:28.182Z,80.40
2018-07-23T03:08:31.941Z,79.60
2018-07-23T03:12:35.668Z,80.40
2018-07-23T03:16:39.368Z,81.20
2018-07-23T03:20:42.950Z,81.20
2018-07-23T03:24:46.773Z,79.50
2018-07-23T03:28:50.354Z,79.00
2018-07-23T03:32:53.875Z,79.30
2018-07-23T03:36:58.694Z,80.50
2018-07-23T03:41:02.282Z,79.90
2018-07-23T03:45:06.587Z,80.20
2018-07-23T03:49:10.109Z,80.00
2018-07-23T03:53:14.785Z,80.60
2018-07-23T03:57:18.348Z,80.90
2018-07-23T04:01:21.870Z,81.20
2018-07-23T04:05:25.417Z,81.20
2018-07-23T04:09:28.972Z,81.30
2018-07-23T04:13:32.491Z,80.80
2018-07-23T04:17:36.109Z,80.80
2018-07-23T04:21:40.120Z,81.30
2018-07-23T04:25:43.701Z,81.40
2018-07-23T04:29:47.226Z,81.30
2018-07-23T04:33:51.839Z,81.80
2018-07-23T04:37:55.539Z,81.60
2018-07-23T04:41:59.247Z,81.80
2018-07-23T04:46:02.725Z,81.40
2018-07-23T04:50:06.724Z,81.60
2018-07-23T04:54:10.285Z,81.70
2018-07-23T04:58:13.881Z,81.90
2018-07-23T05:02:17.385Z,81.60
2018-07-23T05:06:21.461Z,81.70
2018-07-23T05:10:25.606Z,82.00
2018-07-23T05:14:30.254Z,79.50
2018-07-23T05:18:33.756Z,80.30
2018-07-23T05:22:38.374Z,80.20
2018-07-23T05:26:42.870Z,79.80
2018-07-23T05:30:46.501Z,79.10
2018-07-23T05:34:51.322Z,79.20
2018-07-23T05:38:56.450Z,78.80
2018-07-23T05:43:00.173Z,78.00
2018-07-23T05:47:04.155Z,78.30
2018-07-23T05:51:07.852Z,78.20
2018-07-23T05:55:13.605Z,78.10
2018-07-23T05:59:17.194Z,78.10
2018-07-23T06:03:20.962Z,77.80
2018-07-23T06:07:25.004Z,77.80
2018-07-23T06:11:28.840Z,77.30
2018-07-23T06:15:32.550Z,76.30
2018-07-23T06:19:36.295Z,75.10
2018-07-23T06:23:39.885Z,74.40
2018-07-23T06:27:43.575Z,72.00
2018-07-23T06:31:54.059Z,70.60
2018-07-23T06:35:59.747Z,67.80
2018-07-23T06:40:03.384Z,66.90
2018-07-23T06:44:07.453Z,68.00
2018-07-23T06:48:11.010Z,62.80
2018-07-23T06:52:14.658Z,62.20
2018-07-23T06:56:18.330Z,59.10
2018-07-23T07:00:21.990Z,57.00
2018-07-23T07:04:26.036Z,56.60
2018-07-23T07:08:29.613Z,53.90
2018-07-23T07:12:33.118Z,54.50
2018-07-23T07:16:36.798Z,54.90
2018-07-23T07:20:42.105Z,51.80
2018-07-23T07:24:45.857Z,52.40
2018-07-23T07:28:50.461Z,54.20
2018-07-23T07:32:54.471Z,54.10
2018-07-23T07:36:58.096Z,53.20
2018-07-23T07:41:02.698Z,50.70
2018-07-23T07:45:07.442Z,50.80
2018-07-23T07:49:11.606Z,50.10
2018-07-23T07:53:15.162Z,48.30
2018-07-23T07:57:21.000Z,50.00
2018-07-23T08:01:24.557Z,48.80
2018-07-23T08:05:28.182Z,49.10
2018-07-23T08:09:31.790Z,48.80
2018-07-23T08:13:35.506Z,49.20
2018-07-23T08:21:42.290Z,48.00
2018-07-23T08:25:46.505Z,47.00
2018-07-23T08:33:53.502Z,47.70
2018-07-23T08:37:57.049Z,46.10
2018-07-23T08:42:00.686Z,45.00
2018-07-23T08:46:04.586Z,47.50
2018-07-23T08:50:08.082Z,48.70
2018-07-23T08:58:15.033Z,44.00
2018-07-23T09:02:19.092Z,45.90
2018-07-23T09:06:22.629Z,45.90
2018-07-23T09:10:26.272Z,46.70
2018-07-23T09:14:29.849Z,47.10
2018-07-23T09:18:33.701Z,48.50
2018-07-23T09:22:40.667Z,48.00
2018-07-23T09:26:44.294Z,44.80
2018-07-23T09:30:51.360Z,45.60
2018-07-23T09:34:55.130Z,42.70
2018-07-23T09:38:58.714Z,43.00
2018-07-23T09:43:04.072Z,44.60
2018-07-23T09:47:07.657Z,45.20
2018-07-23T09:51:12.222Z,44.40
2018-07-23T09:55:19.245Z,43.50
2018-07-23T09:59:22.825Z,44.00
2018-07-23T10:03:26.713Z,44.30
2018-07-23T10:07:33.660Z,43.10
2018-07-23T10:11:37.773Z,44.60
2018-07-23T10:15:41.416Z,46.10
2018-07-23T10:19:44.995Z,47.70
2018-07-23T10:23:48.672Z,44.10
2018-07-23T10:27:58.175Z,44.20
2018-07-23T10:32:05.511Z,43.50
2018-07-23T10:36:09.225Z,42.30
2018-07-23T10:40:12.784Z,40.50
2018-07-23T10:44:20.201Z,41.70
2018-07-23T10:48:23.960Z,46.80
2018-07-23T10:52:27.457Z,42.70
2018-07-23T10:56:31.102Z,44.90
2018-07-23T11:00:34.725Z,44.10
2018-07-23T11:04:39.340Z,45.80
2018-07-23T11:08:44.936Z,45.10
2018-07-23T11:16:55.103Z,42.60
2018-07-23T11:20:59.135Z,42.60
2018-07-23T11:25:38.220Z,42.30
2018-07-23T11:29:06.534Z,42.00
2018-07-23T11:33:10.099Z,45.60
2018-07-23T11:37:14.974Z,47.40
2018-07-23T11:41:23.895Z,47.80
2018-07-23T11:45:27.556Z,48.10
2018-07-23T11:53:38.212Z,45.30
2018-07-23T11:57:47.422Z,45.80
2018-07-23T12:01:51.762Z,45.90
2018-07-23T12:05:55.350Z,47.30
2018-07-23T12:09:58.982Z,45.80
2018-07-23T12:14:06.945Z,46.20
2018-07-23T12:18:10.697Z,47.10
2018-07-23T12:22:14.350Z,48.50
2018-07-23T12:26:20.976Z,49.00
2018-07-23T12:30:25.793Z,49.00
2018-07-23T12:34:31.595Z,51.50
2018-07-23T12:42:39.755Z,49.50
2018-07-23T12:46:43.396Z,52.70
2018-07-23T12:50:55.278Z,53.20
2018-07-23T12:55:00.867Z,51.60
2018-07-23T12:59:04.527Z,48.90
2018-07-23T13:03:08.258Z,51.00
2018-07-23T13:07:13.821Z,50.80
2018-07-23T13:11:28.932Z,53.50
2018-07-23T13:15:32.755Z,51.30
2018-07-23T13:19:36.402Z,47.80
2018-07-23T13:23:40.102Z,49.00
2018-07-23T13:27:43.655Z,50.30
2018-07-23T13:31:52.443Z,52.20
2018-07-23T13:35:57.044Z,52.40
2018-07-23T13:40:00.706Z,52.80
2018-07-23T13:44:04.381Z,49.20
2018-07-23T13:48:14.307Z,52.20
2018-07-23T13:52:17.969Z,53.40
2018-07-23T13:56:21.897Z,51.20
2018-07-23T14:00:25.457Z,52.40
2018-07-23T14:04:30.151Z,50.80
2018-07-23T14:08:33.755Z,49.10
2018-07-23T14:12:37.434Z,48.50
2018-07-23T14:16:42.018Z,52.70
2018-07-23T14:20:45.595Z,51.20
2018-07-23T14:24:51.124Z,52.90
2018-07-23T14:28:54.695Z,54.40
2018-07-23T14:32:58.234Z,52.90
2018-07-23T14:37:01.869Z,53.10
2018-07-23T14:41:05.410Z,53.80
2018-07-23T14:45:08.970Z,53.60
2018-07-23T14:53:15.894Z,55.10
2018-07-23T14:57:19.361Z,54.80
2018-07-23T15:01:22.881Z,50.70
2018-07-23T15:05:26.534Z,49.80
2018-07-23T15:09:30.672Z,52.30
2018-07-23T15:13:34.302Z,49.40
2018-07-23T15:17:37.902Z,51.20
2018-07-23T15:21:41.414Z,51.70
2018-07-23T15:25:44.969Z,53.80
2018-07-23T15:29:48.458Z,54.60
2018-07-23T15:34:01.642Z,55.40
2018-07-23T15:38:05.158Z,55.30
2018-07-23T15:42:08.787Z,55.20
2018-07-23T15:46:12.373Z,55.80
2018-07-23T15:50:15.915Z,56.30
2018-07-23T15:54:19.474Z,56.40
2018-07-23T15:58:24.120Z,55.20
2018-07-23T16:02:28.843Z,54.20
2018-07-23T16:06:42.740Z,54.50
2018-07-23T16:10:46.680Z,56.40
2018-07-23T16:14:58.202Z,56.30
2018-07-23T16:19:03.034Z,55.30
2018-07-23T16:23:09.861Z,56.00
2018-07-23T16:27:13.488Z,56.20
2018-07-23T16:31:20.410Z,56.30
2018-07-23T16:35:24.042Z,56.00
2018-07-23T16:39:28.891Z,55.60
2018-07-23T16:43:32.533Z,55.90
2018-07-23T16:47:43.597Z,55.60
2018-07-23T16:51:53.362Z,55.90
2018-07-23T16:55:57.142Z,55.10
2018-07-23T17:00:02.831Z,56.10
2018-07-23T17:04:13.209Z,56.30
2018-07-23T17:08:19.918Z,56.00
2018-07-23T17:12:25.489Z,56.60
2018-07-23T17:16:40.056Z,57.90
2018-07-23T17:20:44.063Z,56.90
2018-07-23T17:24:58.718Z,56.90
2018-07-23T17:29:06.317Z,56.90
2018-07-23T17:33:12.072Z,55.60
2018-07-23T17:37:15.677Z,57.30
2018-07-23T17:41:20.270Z,57.30
2018-07-23T17:45:25.036Z,55.30
2018-07-23T17:49:32.567Z,56.40
2018-07-23T17:53:36.541Z,55.40
2018-07-23T17:57:40.277Z,56.90
2018-07-23T18:01:58.458Z,55.50
2018-07-23T18:06:02.204Z,55.80
2018-07-23T18:10:07.962Z,56.50
2018-07-23T18:14:13.494Z,58.00
2018-07-23T18:18:17.108Z,56.30
2018-07-23T18:26:24.877Z,58.90
2018-07-23T18:30:34.259Z,59.30
2018-07-23T18:34:40.329Z,58.20
2018-07-23T18:38:43.973Z,59.60
2018-07-23T18:46:57.263Z,57.60
2018-07-23T18:51:03.016Z,57.80
2018-07-23T18:55:06.769Z,58.40
2018-07-23T18:59:10.535Z,58.80
2018-07-23T19:03:15.143Z,60.00
2018-07-23T19:07:19.977Z,59.70
2018-07-23T19:11:24.806Z,60.00
2018-07-23T19:15:28.580Z,60.20
2018-07-23T19:19:32.221Z,60.80
2018-07-23T19:23:39.137Z,60.90
2018-07-23T19:27:46.486Z,61.50
2018-07-23T19:31:50.077Z,61.00
2018-07-23T19:35:53.717Z,61.30
2018-07-23T19:39:57.363Z,61.90
2018-07-23T19:44:04.837Z,62.20
2018-07-23T19:48:10.938Z,63.30
2018-07-23T19:52:14.536Z,64.00
2018-07-23T19:56:18.336Z,63.00
2018-07-23T20:00:22.220Z,63.50
2018-07-23T20:04:25.919Z,64.10
2018-07-23T20:08:30.640Z,64.90
2018-07-23T20:12:34.721Z,64.60
2018-07-23T20:16:38.710Z,65.10
2018-07-23T20:20:43.817Z,65.90
2018-07-23T20:24:47.361Z,66.00
2018-07-23T20:28:53.141Z,67.00
2018-07-23T20:33:00.775Z,66.90
2018-07-23T20:37:04.431Z,66.30
2018-07-23T20:41:08.905Z,66.70
2018-07-23T20:45:12.818Z,67.00
2018-07-23T20:49:16.474Z,67.70
2018-07-23T20:53:20.723Z,67.00
2018-07-23T20:57:24.526Z,67.10
2018-07-23T21:01:28.238Z,67.90
2018-07-23T21:05:32.883Z,68.10
2018-07-23T21:09:36.659Z,68.40
2018-07-23T21:13:40.883Z,68.40
2018-07-23T21:17:44.620Z,68.70
2018-07-23T21:21:54.061Z,68.70
2018-07-23T21:25:59.004Z,68.90
2018-07-23T21:30:02.646Z,70.40
2018-07-23T21:34:07.225Z,69.00
2018-07-23T21:38:12.031Z,69.20
2018-07-23T21:42:15.767Z,69.10
2018-07-23T21:46:23.269Z,70.10
2018-07-23T21:50:27.069Z,70.30
2018-07-23T21:54:31.625Z,71.30
2018-07-23T21:58:35.156Z,70.30
2018-07-23T22:06:46.101Z,70.40
2018-07-23T22:10:49.644Z,71.10
2018-07-23T22:15:00.474Z,70.80
2018-07-23T22:19:04.206Z,71.20
2018-07-23T22:23:07.960Z,71.70
2018-07-23T22:27:11.422Z,71.00
2018-07-23T22:31:14.985Z,71.20
2018-07-23T22:35:20.542Z,71.40
2018-07-23T22:39:24.113Z,71.20
2018-07-23T22:43:27.622Z,71.90
2018-07-23T22:47:31.609Z,72.90
2018-07-23T22:51:36.017Z,73.90
2018-07-23T22:55:41.590Z,74.00
2018-07-23T22:59:45.131Z,74.30
2018-07-23T23:03:49.104Z,73.50
2018-07-23T23:07:53.718Z,73.60
2018-07-23T23:11:57.354Z,73.00
2018-07-23T23:16:00.994Z,73.40
2018-07-23T23:20:04.620Z,74.00
2018-07-23T23:24:08.265Z,74.60
2018-07-23T23:28:12.002Z,73.90
2018-07-23T23:32:15.558Z,73.80
2018-07-23T23:36:19.309Z,74.60
2018-07-23T23:40:22.913Z,74.10
2018-07-23T23:44:26.466Z,74.80
2018-07-23T23:48:31.310Z,75.40
2018-07-23T23:52:34.907Z,75.40
2018-07-23T23:56:45.234Z,75.00
